Time;durP1;ratioP1;P1;durP2;ratioP2;P2;SDS_P1;SDS_P2;PMS_P1;PMS_P2;Temp;Humidity;BMP_temperature;BMP_pressure;BME280_temperature;BME280_humidity;BME280_pressure;Samples;Min_cycle;Max_cycle;Signal;HPM_P1;HPM_P2
2023/07/06 00:00:08;;;;;;;3.70;2.88;;;;;;;;;;5092001;28;20102;-84
2023/07/06 00:02:35;;;;;;;5.47;2.78;;;;;;;;;;5091092;28;20048;-85
2023/07/06 00:05:02;;;;;;;5.63;3.00;;;;;;;;;;5092604;28;20111;-85
2023/07/06 00:07:30;;;;;;;4.45;2.90;;;;;;;;;;5091665;28;20044;-85
2023/07/06 00:09:58;;;;;;;4.65;2.90;;;;;;;;;;5091515;28;20048;-84
2023/07/06 00:12:25;;;;;;;3.38;2.70;;;;;;;;;;5092584;28;20048;-84
2023/07/06 00:14:52;;;;;;;7.68;3.13;;;;;;;;;;5091228;28;20454;-85
2023/07/06 00:17:21;;;;;;;4.97;3.20;;;;;;;;;;5094869;28;20500;-84
2023/07/06 00:19:49;;;;;;;4.20;2.90;;;;;;;;;;5095227;28;20081;-85
2023/07/06 00:22:18;;;;;;;6.40;3.25;;;;;;;;;;5096613;28;20093;-84
2023/07/06 00:24:46;;;;;;;4.53;3.10;;;;;;;;;;5096476;28;20044;-85
2023/07/06 00:27:17;;;;;;;3.42;3.13;;;;;;;;;;5095443;28;20055;-84
2023/07/06 00:29:56;;;;;;;3.25;2.95;;;;;;;;;;5096362;28;20389;-85
2023/07/06 00:32:27;;;;;;;3.85;3.42;;;;;;;;;;5096352;28;20127;-85
2023/07/06 00:34:55;;;;;;;5.65;3.97;;;;;;;;;;5095174;28;20143;-84
2023/07/06 00:37:23;;;;;;;3.28;2.70;;;;;;;;;;5094977;28;20044;-85
2023/07/06 00:39:50;;;;;;;5.25;2.88;;;;;;;;;;5096253;28;20058;-86
2023/07/06 00:42:19;;;;;;;3.45;3.15;;;;;;;;;;5094845;28;20051;-85
2023/07/06 00:44:48;;;;;;;4.07;3.13;;;;;;;;;;5094771;28;20054;-85
2023/07/06 00:47:17;;;;;;;3.28;2.97;;;;;;;;;;5096282;28;20048;-85
2023/07/06 00:49:45;;;;;;;3.95;2.88;;;;;;;;;;5094710;28;20127;-84
2023/07/06 00:52:13;;;;;;;4.28;2.95;;;;;;;;;;5094707;28;20052;-84
2023/07/06 00:54:42;;;;;;;7.00;3.58;;;;;;;;;;5094754;28;20101;-84
2023/07/06 00:57:11;;;;;;;4.65;3.15;;;;;;;;;;5095836;28;20393;-84
2023/07/06 00:59:40;;;;;;;5.60;3.33;;;;;;;;;;5095142;28;20047;-85
2023/07/06 01:02:10;;;;;;;3.92;3.33;;;;;;;;;;5094710;28;20044;-85
2023/07/06 01:04:39;;;;;;;5.22;3.33;;;;;;;;;;5094813;28;20044;-85
2023/07/06 01:07:07;;;;;;;5.05;3.30;;;;;;;;;;5095807;28;20097;-85
2023/07/06 01:09:34;;;;;;;6.60;3.45;;;;;;;;;;5094572;28;20059;-84
2023/07/06 01:12:02;;;;;;;4.53;3.72;;;;;;;;;;5094279;28;20063;-85
2023/07/06 01:14:31;;;;;;;6.25;3.50;;;;;;;;;;5095323;28;20082;-84
2023/07/06 01:17:19;;;;;;;4.07;3.30;;;;;;;;;;5095852;28;20040;-84
2023/07/06 01:19:46;;;;;;;8.13;3.80;;;;;;;;;;5095243;28;20056;-84
2023/07/06 01:22:24;;;;;;;6.35;3.30;;;;;;;;;;5095218;28;20040;-85
2023/07/06 01:25:02;;;;;;;6.20;3.40;;;;;;;;;;5095334;28;20043;-85
2023/07/06 01:27:37;;;;;;;3.45;3.15;;;;;;;;;;5093404;28;20052;-84
2023/07/06 01:30:07;;;;;;;7.05;3.30;;;;;;;;;;5094041;28;20048;-84
2023/07/06 01:32:39;;;;;;;6.80;3.50;;;;;;;;;;5094526;28;20084;-84
2023/07/06 01:35:07;;;;;;;7.22;3.50;;;;;;;;;;5095206;28;20092;-85
2023/07/06 01:37:41;;;;;;;5.18;3.72;;;;;;;;;;5093934;28;20044;-84
2023/07/06 01:40:09;;;;;;;4.30;3.50;;;;;;;;;;5095148;28;20135;-84
2023/07/06 01:42:38;;;;;;;4.88;3.42;;;;;;;;;;5093719;28;20127;-84
2023/07/06 01:45:11;;;;;;;5.22;3.90;;;;;;;;;;5093886;28;20105;-84
2023/07/06 01:47:41;;;;;;;6.78;3.15;;;;;;;;;;5093727;28;20541;-84
2023/07/06 01:50:11;;;;;;;4.25;3.47;;;;;;;;;;5093851;28;20051;-84
2023/07/06 01:52:49;;;;;;;7.20;3.80;;;;;;;;;;5093586;28;20043;-84
2023/07/06 01:55:20;;;;;;;7.07;4.03;;;;;;;;;;5093870;28;20411;-84
2023/07/06 01:57:54;;;;;;;3.88;3.58;;;;;;;;;;5093584;28;20109;-84
2023/07/06 02:00:30;;;;;;;4.22;3.30;;;;;;;;;;5093536;28;20415;-85
2023/07/06 02:02:59;;;;;;;4.55;3.55;;;;;;;;;;5093374;28;20044;-84
2023/07/06 02:05:27;;;;;;;5.50;4.13;;;;;;;;;;5094772;28;20076;-84
2023/07/06 02:07:54;;;;;;;4.88;3.22;;;;;;;;;;5094416;28;20055;-84
2023/07/06 02:10:22;;;;;;;9.63;4.05;;;;;;;;;;5094522;28;20063;-84
2023/07/06 02:12:49;;;;;;;3.63;3.33;;;;;;;;;;5093873;28;20101;-84
2023/07/06 02:15:18;;;;;;;4.25;3.22;;;;;;;;;;5093514;28;20040;-85
2023/07/06 02:17:46;;;;;;;3.35;3.05;;;;;;;;;;5093299;28;20097;-84
2023/07/06 02:20:15;;;;;;;4.28;3.10;;;;;;;;;;5094434;28;20503;-85
2023/07/06 02:22:43;;;;;;;4.13;3.10;;;;;;;;;;5092858;28;20140;-84
2023/07/06 02:25:11;;;;;;;6.05;3.03;;;;;;;;;;5094405;28;20062;-84
2023/07/06 02:27:38;;;;;;;4.22;3.40;;;;;;;;;;5093361;28;20044;-84
2023/07/06 02:30:06;;;;;;;3.97;3.10;;;;;;;;;;5093087;28;20083;-83
2023/07/06 02:32:33;;;;;;;3.97;3.08;;;;;;;;;;5094048;28;20083;-85
2023/07/06 02:35:02;;;;;;;4.82;3.20;;;;;;;;;;5093313;28;20411;-86
2023/07/06 02:37:30;;;;;;;3.55;3.25;;;;;;;;;;5092964;28;20052;-85
2023/07/06 02:40:00;;;;;;;4.03;3.28;;;;;;;;;;5093207;28;20083;-85
2023/07/06 02:42:27;;;;;;;6.57;3.20;;;;;;;;;;5094004;28;20453;-85
2023/07/06 02:44:57;;;;;;;4.13;3.25;;;;;;;;;;5093026;28;20085;-85
2023/07/06 02:47:26;;;;;;;4.15;3.75;;;;;;;;;;5093010;28;20048;-84
2023/07/06 02:49:54;;;;;;;3.83;3.50;;;;;;;;;;5092669;28;20044;-85
2023/07/06 02:52:21;;;;;;;3.65;3.35;;;;;;;;;;5093009;28;20052;-84
2023/07/06 02:54:48;;;;;;;5.53;3.78;;;;;;;;;;5092600;28;20113;-84
2023/07/06 02:57:15;;;;;;;5.28;3.75;;;;;;;;;;5092656;28;20048;-84
2023/07/06 02:59:43;;;;;;;4.72;3.30;;;;;;;;;;5092108;28;20059;-84
2023/07/06 03:02:12;;;;;;;4.75;3.78;;;;;;;;;;5092508;28;20071;-84
2023/07/06 03:04:39;;;;;;;3.63;3.35;;;;;;;;;;5093531;28;20055;-84
2023/07/06 03:07:08;;;;;;;6.00;3.90;;;;;;;;;;5093327;28;20040;-84
2023/07/06 03:09:36;;;;;;;7.45;3.90;;;;;;;;;;5093348;28;20466;-85
2023/07/06 03:12:05;;;;;;;6.68;3.75;;;;;;;;;;5093308;28;20553;-84
2023/07/06 03:14:33;;;;;;;9.10;3.95;;;;;;;;;;5091984;28;20097;-85
2023/07/06 03:17:00;;;;;;;8.55;3.92;;;;;;;;;;5092232;28;20048;-85
2023/07/06 03:19:27;;;;;;;5.13;3.97;;;;;;;;;;5093208;28;20480;-85
2023/07/06 03:21:58;;;;;;;8.20;4.55;;;;;;;;;;5092073;28;20474;-85
2023/07/06 03:24:26;;;;;;;4.60;4.07;;;;;;;;;;5091924;28;20060;-84
2023/07/06 03:26:54;;;;;;;4.50;4.10;;;;;;;;;;5091769;28;20058;-85
2023/07/06 03:29:21;;;;;;;8.73;4.28;;;;;;;;;;5092966;28;20397;-85
2023/07/06 03:31:49;;;;;;;9.32;4.75;;;;;;;;;;5092967;28;20079;-85
2023/07/06 03:34:18;;;;;;;4.28;3.88;;;;;;;;;;5091711;28;20105;-85
2023/07/06 03:36:45;;;;;;;6.35;4.25;;;;;;;;;;5092062;28;20399;-84
2023/07/06 03:39:12;;;;;;;6.72;4.30;;;;;;;;;;5093255;28;20052;-84
2023/07/06 03:41:40;;;;;;;7.10;4.35;;;;;;;;;;5092763;28;20123;-85
2023/07/06 03:44:08;;;;;;;5.68;4.20;;;;;;;;;;5093548;28;20094;-85
2023/07/06 03:46:36;;;;;;;7.38;4.10;;;;;;;;;;5092836;28;20048;-85
2023/07/06 03:49:05;;;;;;;5.47;4.32;;;;;;;;;;5090913;28;20416;-85
2023/07/06 03:51:32;;;;;;;7.32;3.85;;;;;;;;;;5091156;28;20105;-85
2023/07/06 03:54:00;;;;;;;5.22;4.00;;;;;;;;;;5091814;28;20551;-85
2023/07/06 03:56:27;;;;;;;4.43;3.47;;;;;;;;;;5092014;28;20102;-85
2023/07/06 03:58:58;;;;;;;9.13;4.38;;;;;;;;;;5091614;28;20051;-84
2023/07/06 04:01:27;;;;;;;6.45;3.83;;;;;;;;;;5092577;28;20048;-85
2023/07/06 04:03:55;;;;;;;5.15;4.15;;;;;;;;;;5092190;28;20139;-84
2023/07/06 04:06:27;;;;;;;5.03;3.70;;;;;;;;;;5091169;28;20056;-85
2023/07/06 04:08:58;;;;;;;6.22;3.70;;;;;;;;;;5091707;28;20122;-84
2023/07/06 04:11:25;;;;;;;5.80;3.47;;;;;;;;;;5091226;28;20098;-85
2023/07/06 04:13:57;;;;;;;4.88;3.95;;;;;;;;;;5091669;28;20553;-85
2023/07/06 04:16:25;;;;;;;5.47;4.25;;;;;;;;;;5091308;28;20044;-85
2023/07/06 04:18:53;;;;;;;7.50;3.70;;;;;;;;;;5092240;28;20507;-85
2023/07/06 04:21:21;;;;;;;5.35;3.45;;;;;;;;;;5091383;28;20044;-86
2023/07/06 04:23:49;;;;;;;4.22;3.45;;;;;;;;;;5091492;28;20044;-85
2023/07/06 04:26:17;;;;;;;5.75;3.63;;;;;;;;;;5092104;28;20056;-85
2023/07/06 04:28:44;;;;;;;6.38;3.70;;;;;;;;;;5092596;28;20044;-85
2023/07/06 04:31:15;;;;;;;14.30;4.60;;;;;;;;;;5092360;28;20461;-85
2023/07/06 04:33:46;;;;;;;5.22;3.28;;;;;;;;;;5091370;28;20491;-85
2023/07/06 04:36:20;;;;;;;6.15;3.67;;;;;;;;;;5092525;28;20056;-85
2023/07/06 04:38:47;;;;;;;;;;;;;;;;;;5092921;28;20044;-85
2023/07/06 04:41:15;;;;;;;3.70;3.17;;;;;;;;;;5091161;28;19920;-85
2023/07/06 04:43:42;;;;;;;4.75;3.10;;;;;;;;;;5092361;28;20056;-85
2023/07/06 04:46:10;;;;;;;14.32;3.25;;;;;;;;;;5091902;28;20052;-85
2023/07/06 04:48:37;;;;;;;11.13;4.07;;;;;;;;;;5092371;28;20044;-85
2023/07/06 04:51:04;;;;;;;5.88;3.25;;;;;;;;;;5091447;28;20052;-85
2023/07/06 04:53:32;;;;;;;8.48;4.07;;;;;;;;;;5091723;28;20074;-86
2023/07/06 04:56:00;;;;;;;8.88;3.72;;;;;;;;;;5092589;28;20452;-85
2023/07/06 04:58:31;;;;;;;8.63;3.65;;;;;;;;;;5091426;28;20450;-85
2023/07/06 05:01:04;;;;;;;7.70;3.58;;;;;;;;;;5091535;28;20108;-85
2023/07/06 05:03:32;;;;;;;6.32;3.35;;;;;;;;;;5094665;28;20051;-86
2023/07/06 05:06:02;;;;;;;5.10;3.20;;;;;;;;;;5094578;28;20048;-86
2023/07/06 05:08:29;;;;;;;4.20;3.17;;;;;;;;;;5095405;28;20462;-86
2023/07/06 05:10:56;;;;;;;8.77;3.50;;;;;;;;;;5096352;28;20101;-85
2023/07/06 05:13:23;;;;;;;5.35;3.30;;;;;;;;;;5094995;28;20074;-85
2023/07/06 05:15:52;;;;;;;2.78;2.58;;;;;;;;;;5095893;28;20048;-85
2023/07/06 05:18:19;;;;;;;3.42;2.45;;;;;;;;;;5094791;28;20044;-85
2023/07/06 05:20:51;;;;;;;4.60;2.67;;;;;;;;;;5094772;28;20503;-85
2023/07/06 05:23:18;;;;;;;5.93;2.63;;;;;;;;;;5095017;28;20043;-85
2023/07/06 05:25:46;;;;;;;3.92;2.28;;;;;;;;;;5095632;28;20044;-86
2023/07/06 05:28:19;;;;;;;2.53;2.30;;;;;;;;;;5095009;28;20044;-85
2023/07/06 05:30:47;;;;;;;;;;;;;;;;;;5095927;28;20051;-86
2023/07/06 05:33:15;;;;;;;3.60;2.20;;;;;;;;;;5094802;28;19960;-86
2023/07/06 05:35:42;;;;;;;5.10;2.30;;;;;;;;;;5094522;28;20048;-85
2023/07/06 05:38:10;;;;;;;3.65;2.22;;;;;;;;;;5094638;28;20052;-85
2023/07/06 05:40:41;;;;;;;2.33;2.13;;;;;;;;;;5094492;28;20055;-84
2023/07/06 05:43:09;;;;;;;2.38;2.17;;;;;;;;;;5094196;28;20475;-85
2023/07/06 05:45:37;;;;;;;2.95;1.80;;;;;;;;;;5095302;28;20131;-86
2023/07/06 05:48:04;;;;;;;3.63;2.30;;;;;;;;;;5094458;28;20117;-84
2023/07/06 05:50:32;;;;;;;3.80;1.77;;;;;;;;;;5093865;28;20113;-85
2023/07/06 05:53:02;;;;;;;15.43;3.15;;;;;;;;;;5093626;28;20135;-85
2023/07/06 05:55:29;;;;;;;15.27;2.97;;;;;;;;;;5094735;28;20048;-85
2023/07/06 05:57:57;;;;;;;7.32;2.47;;;;;;;;;;5094733;28;20121;-85
2023/07/06 06:00:24;;;;;;;6.40;2.05;;;;;;;;;;5093845;28;20048;-85
2023/07/06 06:02:52;;;;;;;12.52;3.13;;;;;;;;;;5092753;28;20051;-85
2023/07/06 06:05:19;;;;;;;7.07;2.75;;;;;;;;;;5093953;28;20051;-84
2023/07/06 06:07:47;;;;;;;16.38;3.00;;;;;;;;;;5094852;28;20514;-85
2023/07/06 06:10:14;;;;;;;16.13;3.17;;;;;;;;;;5093627;28;20090;-85
2023/07/06 06:12:44;;;;;;;10.05;3.10;;;;;;;;;;5093197;28;20093;-85
2023/07/06 06:15:12;;;;;;;11.20;2.33;;;;;;;;;;5093106;28;20059;-85
2023/07/06 06:17:40;;;;;;;7.95;2.38;;;;;;;;;;5093198;28;20075;-85
2023/07/06 06:20:11;;;;;;;9.13;2.67;;;;;;;;;;5092921;28;20101;-85
2023/07/06 06:22:40;;;;;;;8.77;2.08;;;;;;;;;;5093204;28;20435;-85
2023/07/06 06:25:07;;;;;;;13.05;2.30;;;;;;;;;;5092337;28;20097;-85
2023/07/06 06:27:35;;;;;;;9.57;2.80;;;;;;;;;;5094708;28;20073;-84
2023/07/06 06:30:05;;;;;;;5.38;2.30;;;;;;;;;;5093273;28;20052;-85
2023/07/06 06:32:34;;;;;;;11.52;2.58;;;;;;;;;;5093039;28;20094;-85
2023/07/06 06:35:02;;;;;;;6.38;2.20;;;;;;;;;;5093129;28;20044;-85
2023/07/06 06:37:30;;;;;;;8.88;2.35;;;;;;;;;;5092715;28;20075;-85
2023/07/06 06:39:59;;;;;;;5.90;1.83;;;;;;;;;;5093182;28;20051;-85
2023/07/06 06:42:28;;;;;;;3.13;1.45;;;;;;;;;;5093623;28;20056;-85
2023/07/06 06:44:57;;;;;;;5.07;1.70;;;;;;;;;;5093869;28;20051;-84
2023/07/06 06:47:25;;;;;;;2.55;1.60;;;;;;;;;;5093020;28;20052;-85
2023/07/06 06:49:52;;;;;;;2.45;1.30;;;;;;;;;;5092377;28;20131;-85
2023/07/06 06:52:20;;;;;;;2.08;1.27;;;;;;;;;;5092489;28;20051;-86
2023/07/06 06:54:50;;;;;;;1.67;0.90;;;;;;;;;;5092282;28;20109;-85
2023/07/06 06:57:17;;;;;;;2.92;1.20;;;;;;;;;;5092794;28;20052;-85
2023/07/06 06:59:47;;;;;;;3.10;1.48;;;;;;;;;;5093542;28;20400;-85
2023/07/06 07:02:17;;;;;;;4.13;1.38;;;;;;;;;;5092283;28;20105;-85
2023/07/06 07:04:45;;;;;;;4.03;1.08;;;;;;;;;;5093578;28;20052;-86
2023/07/06 07:07:12;;;;;;;2.42;1.20;;;;;;;;;;5094037;28;20113;-85
2023/07/06 07:09:39;;;;;;;1.50;1.20;;;;;;;;;;5092568;28;20070;-85
2023/07/06 07:12:07;;;;;;;3.03;0.90;;;;;;;;;;5092315;28;20052;-87
2023/07/06 07:14:34;;;;;;;4.57;1.52;;;;;;;;;;5092063;28;20071;-87
2023/07/06 07:17:02;;;;;;;7.80;1.30;;;;;;;;;;5092678;28;20093;-86
2023/07/06 07:19:30;;;;;;;4.78;1.27;;;;;;;;;;5093603;28;20541;-85
2023/07/06 07:22:00;;;;;;;5.70;1.40;;;;;;;;;;5092690;28;20048;-85
2023/07/06 07:24:32;;;;;;;1.48;1.10;;;;;;;;;;5092009;28;20048;-85
2023/07/06 07:27:00;;;;;;;1.88;1.23;;;;;;;;;;5092840;28;20471;-88
2023/07/06 07:29:27;;;;;;;3.03;1.30;;;;;;;;;;5092980;28;20163;-86
2023/07/06 07:31:55;;;;;;;1.17;1.10;;;;;;;;;;5092095;28;20044;-87
2023/07/06 07:34:22;;;;;;;4.00;2.25;;;;;;;;;;5092577;28;20051;-87
2023/07/06 07:36:50;;;;;;;10.13;7.32;;;;;;;;;;5091857;28;20117;-83
2023/07/06 07:39:18;;;;;;;8.45;6.85;;;;;;;;;;5093190;28;20151;-85
2023/07/06 07:41:45;;;;;;;3.42;2.65;;;;;;;;;;5090773;28;20079;-85
2023/07/06 07:44:15;;;;;;;5.75;1.73;;;;;;;;;;5091320;28;20473;-85
2023/07/06 07:46:43;;;;;;;7.28;1.60;;;;;;;;;;5091840;28;20506;-85
2023/07/06 07:49:11;;;;;;;1.92;1.70;;;;;;;;;;5091933;28;20048;-86
2023/07/06 07:51:39;;;;;;;3.60;0.90;;;;;;;;;;5091914;28;20048;-87
2023/07/06 07:54:06;;;;;;;2.83;1.00;;;;;;;;;;5091702;28;20040;-85
2023/07/06 07:56:34;;;;;;;2.03;1.70;;;;;;;;;;5091359;28;20101;-84
2023/07/06 07:59:01;;;;;;;5.80;3.30;;;;;;;;;;5091656;28;20050;-84
2023/07/06 08:01:30;;;;;;;4.53;1.35;;;;;;;;;;5091866;28;20488;-86
2023/07/06 08:03:57;;;;;;;2.20;1.13;;;;;;;;;;5091955;28;20040;-87
2023/07/06 08:06:25;;;;;;;3.55;1.10;;;;;;;;;;5091741;28;20127;-85
2023/07/06 08:08:52;;;;;;;3.83;1.00;;;;;;;;;;5092814;28;20040;-85
2023/07/06 08:11:23;;;;;;;2.03;0.90;;;;;;;;;;5091470;28;20044;-84
2023/07/06 08:13:53;;;;;;;2.15;1.17;;;;;;;;;;5091484;28;20040;-82
2023/07/06 08:16:21;;;;;;;0.75;0.75;;;;;;;;;;5091553;28;20492;-81
2023/07/06 08:18:55;;;;;;;2.15;0.98;;;;;;;;;;5091193;28;20044;-82
2023/07/06 08:21:40;;;;;;;5.13;1.38;;;;;;;;;;5091148;28;20078;-82
2023/07/06 08:24:29;;;;;;;3.45;1.27;;;;;;;;;;5092499;28;20570;-84
2023/07/06 08:26:57;;;;;;;2.03;1.20;;;;;;;;;;5091312;28;20488;-81
2023/07/06 08:29:24;;;;;;;4.88;1.15;;;;;;;;;;5091619;28;20113;-84
2023/07/06 08:31:51;;;;;;;2.70;1.27;;;;;;;;;;5092685;28;20067;-84
2023/07/06 08:34:19;;;;;;;5.10;1.20;;;;;;;;;;5092250;28;20496;-84
2023/07/06 08:36:46;;;;;;;2.83;0.93;;;;;;;;;;5091923;28;20048;-84
2023/07/06 08:39:13;;;;;;;2.63;1.30;;;;;;;;;;5095317;28;20048;-84
2023/07/06 08:41:43;;;;;;;3.63;0.93;;;;;;;;;;5094961;28;20485;-82
2023/07/06 08:44:12;;;;;;;1.70;1.13;;;;;;;;;;5095355;28;20105;-82
2023/07/06 08:46:45;;;;;;;3.85;1.40;;;;;;;;;;5094947;28;20416;-82
2023/07/06 08:49:30;;;;;;;1.83;1.10;;;;;;;;;;5095116;28;20083;-83
2023/07/06 08:52:03;;;;;;;1.65;1.30;;;;;;;;;;5094719;28;20101;-81
2023/07/06 08:54:33;;;;;;;3.38;1.23;;;;;;;;;;5095104;28;20078;-83
2023/07/06 08:57:01;;;;;;;1.02;0.80;;;;;;;;;;5095120;28;20048;-83
2023/07/06 08:59:37;;;;;;;1.77;1.10;;;;;;;;;;5095008;28;20040;-82
2023/07/06 09:02:19;;;;;;;2.08;0.90;;;;;;;;;;5094973;28;20047;-83
2023/07/06 09:04:46;;;;;;;3.72;1.17;;;;;;;;;;5094891;28;20123;-82
2023/07/06 09:07:15;;;;;;;2.25;1.13;;;;;;;;;;5094890;28;20415;-83
2023/07/06 09:09:44;;;;;;;2.50;1.20;;;;;;;;;;5095766;28;20393;-84
2023/07/06 09:12:18;;;;;;;2.22;1.30;;;;;;;;;;5095767;28;20439;-84
2023/07/06 09:14:50;;;;;;;0.95;0.95;;;;;;;;;;5095632;28;20056;-85
2023/07/06 09:17:17;;;;;;;3.88;1.20;;;;;;;;;;5094597;28;20105;-85
2023/07/06 09:19:45;;;;;;;3.28;0.85;;;;;;;;;;5094439;28;20048;-85
2023/07/06 09:22:13;;;;;;;2.85;1.30;;;;;;;;;;5094319;28;20044;-85
2023/07/06 09:24:44;;;;;;;3.55;1.00;;;;;;;;;;5094275;28;20047;-84
2023/07/06 09:27:17;;;;;;;5.25;1.20;;;;;;;;;;5094495;28;20048;-82
2023/07/06 09:29:45;;;;;;;1.88;1.35;;;;;;;;;;5094363;28;20413;-84
2023/07/06 09:32:12;;;;;;;1.20;1.00;;;;;;;;;;5094216;28;20048;-84
2023/07/06 09:34:45;;;;;;;2.75;1.25;;;;;;;;;;5095325;28;20083;-85
2023/07/06 09:37:13;;;;;;;2.40;1.40;;;;;;;;;;5094421;28;20063;-85
2023/07/06 09:39:56;;;;;;;2.88;1.02;;;;;;;;;;5094043;28;20304;-85
2023/07/06 09:42:25;;;;;;;1.92;1.10;;;;;;;;;;5093804;28;20056;-84
2023/07/06 09:44:53;;;;;;;3.17;1.00;;;;;;;;;;5094097;28;20101;-84
2023/07/06 09:47:20;;;;;;;1.48;0.85;;;;;;;;;;5093659;28;20089;-83
2023/07/06 09:49:52;;;;;;;2.20;1.33;;;;;;;;;;5094377;28;20091;-85
2023/07/06 09:52:19;;;;;;;5.15;1.27;;;;;;;;;;5093744;28;20097;-84
2023/07/06 09:54:54;;;;;;;3.22;1.35;;;;;;;;;;5094796;28;20056;-84
2023/07/06 09:57:24;;;;;;;1.23;0.82;;;;;;;;;;5093850;28;20087;-86
2023/07/06 09:59:52;;;;;;;1.70;1.10;;;;;;;;;;5094909;28;20082;-85
2023/07/06 10:02:24;;;;;;;2.85;1.30;;;;;;;;;;5093655;28;20048;-84
2023/07/06 10:05:04;;;;;;;2.13;1.33;;;;;;;;;;5094810;28;20044;-85
2023/07/06 10:07:42;;;;;;;1.35;0.98;;;;;;;;;;5094734;28;20438;-84
2023/07/06 10:10:22;;;;;;;2.35;1.10;;;;;;;;;;5093717;28;20431;-84
2023/07/06 10:13:01;;;;;;;7.13;1.45;;;;;;;;;;5093183;28;20056;-83
2023/07/06 10:15:32;;;;;;;1.10;1.00;;;;;;;;;;5093389;28;20044;-84
2023/07/06 10:18:05;;;;;;;2.00;1.30;;;;;;;;;;5093369;28;20048;-84
2023/07/06 10:20:51;;;;;;;1.80;1.42;;;;;;;;;;5094129;28;20044;-83
2023/07/06 10:23:28;;;;;;;1.67;0.98;;;;;;;;;;5094149;28;20048;-83
2023/07/06 10:26:02;;;;;;;1.50;0.90;;;;;;;;;;5093216;28;20118;-84
2023/07/06 10:28:32;;;;;;;2.20;1.10;;;;;;;;;;5094243;28;20044;-84
2023/07/06 10:31:03;;;;;;;1.85;1.23;;;;;;;;;;5092861;28;20385;-84
2023/07/06 10:33:33;;;;;;;1.27;1.17;;;;;;;;;;5093157;28;20491;-84
2023/07/06 10:36:02;;;;;;;1.63;0.90;;;;;;;;;;5092631;28;20097;-83
2023/07/06 10:38:29;;;;;;;1.77;1.15;;;;;;;;;;5092805;28;20048;-81
2023/07/06 10:41:11;;;;;;;3.35;1.05;;;;;;;;;;5093920;28;20098;-83
2023/07/06 10:43:48;;;;;;;2.67;1.27;;;;;;;;;;5092649;28;20058;-83
2023/07/06 10:46:51;;;;;;;1.15;1.00;;;;;;;;;;5093838;28;20314;-80
2023/07/06 10:49:19;;;;;;;2.88;1.67;;;;;;;;;;5071254;28;20529;-84
2023/07/06 10:51:55;;;;;;;2.30;1.25;;;;;;;;;;5089547;28;20052;-87
2023/07/06 10:54:28;;;;;;;2.33;1.48;;;;;;;;;;5092991;28;20093;-83
2023/07/06 10:57:01;;;;;;;1.73;1.13;;;;;;;;;;5092897;28;20059;-84
2023/07/06 10:59:28;;;;;;;;;;;;;;;;;;5092661;28;20040;-82
2023/07/06 11:02:28;;;;;;;1.15;1.13;;;;;;;;;;5092831;28;19920;-81
2023/07/06 11:04:57;;;;;;;3.03;1.02;;;;;;;;;;5088408;28;20047;-83
2023/07/06 11:07:42;;;;;;;1.52;1.10;;;;;;;;;;5093455;28;20059;-81
2023/07/06 11:10:18;;;;;;;5.35;1.42;;;;;;;;;;5093668;28;20072;-80
2023/07/06 11:12:57;;;;;;;1.38;1.10;;;;;;;;;;5092090;28;20048;-81
2023/07/06 11:15:30;;;;;;;4.45;1.40;;;;;;;;;;5092108;28;20055;-81
2023/07/06 11:18:03;;;;;;;3.30;1.25;;;;;;;;;;5092365;28;20509;-82
2023/07/06 11:20:30;;;;;;;2.70;1.20;;;;;;;;;;5091983;28;20047;-80
2023/07/06 11:23:02;;;;;;;1.20;0.93;;;;;;;;;;5091695;28;20083;-80
2023/07/06 11:25:31;;;;;;;1.30;1.10;;;;;;;;;;5092042;28;20044;-81
2023/07/06 11:28:00;;;;;;;1.48;1.10;;;;;;;;;;5091960;28;20051;-84
2023/07/06 11:30:32;;;;;;;2.47;1.05;;;;;;;;;;5092151;28;20457;-81
2023/07/06 11:33:00;;;;;;;1.38;0.90;;;;;;;;;;5091977;28;20385;-81
2023/07/06 11:35:35;;;;;;;3.85;1.40;;;;;;;;;;5091741;28;20066;-81
2023/07/06 11:38:21;;;;;;;3.78;1.27;;;;;;;;;;5092198;28;20121;-80
2023/07/06 11:41:05;;;;;;;1.23;0.90;;;;;;;;;;5092669;28;20123;-83
2023/07/06 11:43:59;;;;;;;1.20;1.00;;;;;;;;;;5091503;28;20056;-80
2023/07/06 11:46:26;;;;;;;2.23;1.07;;;;;;;;;;5092850;28;20052;-83
2023/07/06 11:49:02;;;;;;;1.90;1.30;;;;;;;;;;5091661;28;20119;-84
2023/07/06 11:51:31;;;;;;;4.07;1.45;;;;;;;;;;5091455;28;20097;-84
2023/07/06 11:54:00;;;;;;;2.70;1.65;;;;;;;;;;5091671;28;20086;-83
2023/07/06 11:57:24;;;;;;;4.68;1.63;;;;;;;;;;5091436;28;20055;-87
2023/07/06 11:59:40;;;;;;;1.13;0.98;;;;;;;;;;5092095;28;20052;-81
2023/07/06 12:02:14;;;;;;;5.13;1.30;;;;;;;;;;5092804;28;20056;-81
2023/07/06 12:04:45;;;;;;;2.35;1.38;;;;;;;;;;5091633;28;20056;-83
2023/07/06 12:07:26;;;;;;;2.47;1.50;;;;;;;;;;5092631;28;20125;-85
2023/07/06 12:09:53;;;;;;;1.08;1.08;;;;;;;;;;5092606;28;20048;-84
2023/07/06 12:12:23;;;;;;;2.03;1.35;;;;;;;;;;5093480;28;20135;-84
2023/07/06 12:14:56;;;;;;;1.70;1.30;;;;;;;;;;5095156;28;20067;-83
2023/07/06 12:17:24;;;;;;;;;;;;;;;;;;5095968;28;20411;-83
2023/07/06 12:19:57;;;;;;;2.67;1.20;;;;;;;;;;5095449;28;20342;-85
2023/07/06 12:22:24;;;;;;;1.17;1.08;;;;;;;;;;5095497;28;20048;-83
2023/07/06 12:24:52;;;;;;;1.08;1.00;;;;;;;;;;5095344;28;20404;-82
2023/07/06 12:27:20;;;;;;;4.15;1.10;;;;;;;;;;5095546;28;20040;-81
2023/07/06 12:29:47;;;;;;;3.03;1.30;;;;;;;;;;5095197;28;20048;-80
2023/07/06 12:32:17;;;;;;;1.60;1.02;;;;;;;;;;5096347;28;20056;-83
2023/07/06 12:34:44;;;;;;;1.83;1.02;;;;;;;;;;5095057;28;20051;-83
2023/07/06 12:37:13;;;;;;;3.85;1.48;;;;;;;;;;5095242;28;20054;-82
2023/07/06 12:39:44;;;;;;;4.38;1.25;;;;;;;;;;5095392;28;20102;-85
2023/07/06 12:42:13;;;;;;;1.52;1.02;;;;;;;;;;5096134;28;20082;-81
2023/07/06 12:44:41;;;;;;;3.05;0.95;;;;;;;;;;5095065;28;20105;-79
2023/07/06 12:47:23;;;;;;;2.80;1.08;;;;;;;;;;5096057;28;20098;-82
2023/07/06 12:49:52;;;;;;;2.22;1.15;;;;;;;;;;5096195;28;20081;-81
2023/07/06 12:52:25;;;;;;;5.88;1.65;;;;;;;;;;5095900;28;20052;-84
2023/07/06 12:54:55;;;;;;;4.72;1.27;;;;;;;;;;5094668;28;20044;-83
2023/07/06 12:57:24;;;;;;;0.80;0.80;;;;;;;;;;5096170;28;20523;-81
2023/07/06 12:59:56;;;;;;;1.95;1.17;;;;;;;;;;5094833;28;20051;-81
2023/07/06 13:02:24;;;;;;;1.48;1.08;;;;;;;;;;5094650;28;20052;-80
2023/07/06 13:04:52;;;;;;;1.55;1.10;;;;;;;;;;5095847;28;20119;-81
2023/07/06 13:07:21;;;;;;;0.95;0.93;;;;;;;;;;5094431;28;20052;-82
2023/07/06 13:09:49;;;;;;;1.33;1.05;;;;;;;;;;5094446;28;20050;-81
2023/07/06 13:12:18;;;;;;;5.35;1.52;;;;;;;;;;5095441;28;20052;-84
2023/07/06 13:14:47;;;;;;;1.98;1.20;;;;;;;;;;5094334;28;20078;-84
2023/07/06 13:17:23;;;;;;;1.20;1.10;;;;;;;;;;5094386;28;20058;-83
2023/07/06 13:19:53;;;;;;;2.65;1.23;;;;;;;;;;5094263;28;20044;-83
2023/07/06 13:22:20;;;;;;;2.28;1.20;;;;;;;;;;5094312;28;20096;-83
2023/07/06 13:24:48;;;;;;;3.17;1.25;;;;;;;;;;5092989;28;20492;-83
2023/07/06 13:27:16;;;;;;;1.30;1.20;;;;;;;;;;5095404;28;20052;-84
2023/07/06 13:29:44;;;;;;;2.00;1.08;;;;;;;;;;5095291;28;20117;-83
2023/07/06 13:32:16;;;;;;;2.50;1.25;;;;;;;;;;5094163;28;20044;-84
2023/07/06 13:34:46;;;;;;;2.50;1.20;;;;;;;;;;5093779;28;20052;-85
2023/07/06 13:37:22;;;;;;;2.03;1.15;;;;;;;;;;5093649;28;20081;-84
2023/07/06 13:39:50;;;;;;;3.05;1.00;;;;;;;;;;5095069;28;20087;-84
2023/07/06 13:42:21;;;;;;;2.33;0.95;;;;;;;;;;5094484;28;20124;-83
2023/07/06 13:44:49;;;;;;;3.40;1.70;;;;;;;;;;5093780;28;20048;-80
2023/07/06 13:47:19;;;;;;;6.57;1.30;;;;;;;;;;5093662;28;20059;-81
2023/07/06 13:49:47;;;;;;;3.03;1.20;;;;;;;;;;5093614;28;20113;-81
2023/07/06 13:52:20;;;;;;;2.80;1.00;;;;;;;;;;5093552;28;20415;-82
2023/07/06 13:54:47;;;;;;;3.92;1.23;;;;;;;;;;5093350;28;20294;-82
2023/07/06 13:57:15;;;;;;;1.23;1.00;;;;;;;;;;5094692;28;20500;-83
2023/07/06 13:59:42;;;;;;;1.63;1.00;;;;;;;;;;5093157;28;20086;-83
2023/07/06 14:02:11;;;;;;;1.73;1.20;;;;;;;;;;5093172;28;20047;-83
2023/07/06 14:04:42;;;;;;;6.50;1.83;;;;;;;;;;5093150;28;20067;-81
2023/07/06 14:07:09;;;;;;;10.02;1.73;;;;;;;;;;5093390;28;20048;-81
2023/07/06 14:09:36;;;;;;;9.35;1.75;;;;;;;;;;5092770;28;20044;-82
2023/07/06 14:12:06;;;;;;;1.80;1.23;;;;;;;;;;5094410;28;20052;-81
2023/07/06 14:14:34;;;;;;;1.50;0.95;;;;;;;;;;5092925;28;20048;-81
2023/07/06 14:17:03;;;;;;;1.65;1.08;;;;;;;;;;5094285;28;20051;-82
2023/07/06 14:19:30;;;;;;;1.23;1.13;;;;;;;;;;5092898;28;20075;-84
2023/07/06 14:21:57;;;;;;;2.35;1.10;;;;;;;;;;5092591;28;20041;-84
2023/07/06 14:24:25;;;;;;;3.53;1.25;;;;;;;;;;5092715;28;20451;-85
2023/07/06 14:26:52;;;;;;;2.58;1.00;;;;;;;;;;5094098;28;20044;-83
2023/07/06 14:29:19;;;;;;;1.10;1.08;;;;;;;;;;5092599;28;20089;-82
2023/07/06 14:31:47;;;;;;;1.15;1.02;;;;;;;;;;5092338;28;20483;-82
2023/07/06 14:34:22;;;;;;;3.60;1.60;;;;;;;;;;5092617;28;20091;-82
2023/07/06 14:36:49;;;;;;;1.30;1.13;;;;;;;;;;5093665;28;20052;-82
2023/07/06 14:39:19;;;;;;;1.33;1.20;;;;;;;;;;5092660;28;20046;-82
2023/07/06 14:41:47;;;;;;;2.38;1.20;;;;;;;;;;5093344;28;20067;-81
2023/07/06 14:44:14;;;;;;;1.05;0.90;;;;;;;;;;5092401;28;20446;-81
2023/07/06 14:46:41;;;;;;;1.80;1.65;;;;;;;;;;5093392;28;20093;-82
2023/07/06 14:49:08;;;;;;;2.30;1.13;;;;;;;;;;5092286;28;20109;-82
2023/07/06 14:51:36;;;;;;;1.25;0.85;;;;;;;;;;5092057;28;20079;-83
2023/07/06 14:54:04;;;;;;;2.05;0.90;;;;;;;;;;5092419;28;20047;-81
2023/07/06 14:56:31;;;;;;;1.33;0.93;;;;;;;;;;5092029;28;20102;-83
2023/07/06 14:58:59;;;;;;;1.10;1.00;;;;;;;;;;5092228;28;20590;-81